Airfield :
LOGIN :

Register | Disclaimer

   EN    FR    IT 

 










Legend :    VFR   Marginal VFR   IFR   Intensive IFR   Very Intensive IFR
Visi :
Ceiling :
>= 8 km
>= 3000ft
5 to 8 km
1000 to 3000 ft
1500m to 5 km
500 to 1000 ft
800 to 1500m
200 to 500 ft
< 800m
< 200 ft
Symbols :   Thunderstorms  Fog  Heavy snow  Heavy precipitations  Wind > 20 kt
SIGMETs :     Misc.  Thunderstorms  Icing  Turbulence  Mountain Waves  Volcanic Ashes







- Airport Elevation : 390 ft
- IATA code : NQY
- Download approach charts


EGHQ - Newquay

CURRENT METAR :
  • 201650Z 04009KT 9999 FEW035 04/M00 Q1005

EXPIRED METARs :
  • 201620Z 04009KT 9999 FEW035 05/00 Q1005
  • 201550Z 03008KT 9999 FEW035 05/00 Q1005
  • 201520Z 03010KT 9999 FEW032 05/00 Q1005
  • 201450Z 04012KT 9999 FEW032 06/00 Q1005
  • 201420Z 06012KT 9999 FEW030 06/00 Q1006

TAF TAF EGHQ
Valid from the 20 at 15:00 until the 20 at 22:00 UTC


201356Z 2015/2022 05014KT 9999 SCT030
TEMPO 2015/2018 07017G27KT
PROB30
TEMPO 2015/2022 7000 SHRA
No reported NOTAMs for that airfield.
2 SIGMETs reported for the London FIR (EGTT) :
 
Severe mountain waves
EGTT SIGMET 03 VALID 201700/202100 EGRR
EGTT LONDON FIR SEV MTW FCST WI N5500 W00220 - N5322 W00134 - N5158 W00304 - N5149 W00510 - N5500 W00447 - N5500 W00220 FL030/120 MOV N 10KT NC=
Severe mountain waves
EGTT SIGMET 02 VALID 201300/201700 EGRR
EGTT LONDON FIR SEV MTW FCST WI N5322 W00134 - N5149 W00328 - N5130 W00504 - N5500 W00447 - N5500 W00220 - N5322 W00134 FL030/120 STNR NC=



MET'MAP, your aeronautical weather chart ! - Copyright ORBIFLY December 2007 - Disclaimer

ORBIFLY MET'MAP TEAM :

Programming & Development : Alexandra Zaïnal
Concept & Development : Baudouin d'Aumeries
Co-Development & Prog : Marc-Olivier Méhu
Technical & hardware support : Manuel Goepfert

Contact : metmap@orbifly.com




SOURCES & CREDITS :

   NOAA